Time;durP1;ratioP1;P1;durP2;ratioP2;P2;SDS_P1;SDS_P2;PMS_P1;PMS_P2;Temp;Humidity;BMP_temperature;BMP_pressure;BME280_temperature;BME280_humidity;BME280_pressure;Samples;Min_cycle;Max_cycle;Signal;HPM_P1;HPM_P2
2023/05/07 00:02:59;;;;;;;5.57;2.00;;;;;;;13.46;74.18;100171.13;10407135;28;20076;-71
2023/05/07 00:08:00;;;;;;;6.72;1.67;;;;;;;13.47;74.79;100180.81;10406812;28;20509;-71
2023/05/07 00:13:01;;;;;;;11.32;2.50;;;;;;;13.36;74.46;100174.13;10406930;28;20138;-71
2023/05/07 00:18:02;;;;;;;9.00;1.90;;;;;;;13.44;75.03;100211.38;10406876;28;20041;-71
2023/05/07 00:23:03;;;;;;;10.20;2.28;;;;;;;13.38;75.21;100211.31;10406046;28;20066;-71
2023/05/07 00:28:04;;;;;;;8.77;2.00;;;;;;;13.62;75.36;100215.44;10410871;28;20413;-70
2023/05/07 00:33:05;;;;;;;8.50;2.10;;;;;;;13.18;75.27;100142.53;10413078;28;20048;-70
2023/05/07 00:38:05;;;;;;;6.72;2.20;;;;;;;13.26;76.16;100135.47;10412946;28;20140;-70
2023/05/07 00:43:06;;;;;;;7.15;1.90;;;;;;;13.55;76.09;100167.34;10412550;28;20567;-70
2023/05/07 00:48:07;;;;;;;7.00;1.90;;;;;;;13.82;75.77;100211.13;10412772;28;20116;-70
2023/05/07 00:53:08;;;;;;;9.30;2.10;;;;;;;13.23;75.75;100105.44;10412862;28;20086;-70
2023/05/07 00:58:09;;;;;;;9.27;1.95;;;;;;;13.62;75.98;100183.41;10412583;28;20127;-70
2023/05/07 01:03:10;;;;;;;8.30;2.22;;;;;;;13.46;76.87;100179.13;10412596;28;20097;-70
2023/05/07 01:08:12;;;;;;;9.90;2.08;;;;;;;13.53;77.01;100189.91;10412340;28;20072;-70
2023/05/07 01:13:14;;;;;;;11.07;2.30;;;;;;;13.52;77.17;100186.41;10411906;28;20033;-70
2023/05/07 01:18:15;;;;;;;13.25;2.50;;;;;;;13.48;77.41;100177.94;10412232;28;20044;-70
2023/05/07 01:23:17;;;;;;;13.07;2.17;;;;;;;13.41;77.85;100170.91;10410192;28;20052;-70
2023/05/07 01:28:18;;;;;;;10.30;2.17;;;;;;;12.92;78.19;100089.75;10412511;28;20037;-70
2023/05/07 01:33:21;;;;;;;14.00;2.67;;;;;;;13.21;78.57;100127.97;10411747;28;20045;-70
2023/05/07 01:38:23;;;;;;;7.10;2.00;;;;;;;13.32;77.95;100116.84;10410822;28;20044;-70
2023/05/07 01:59:23;;;;;;;17.38;3.33;;;;;;;13.43;80.84;100153.69;10573369;27;20408;-70
2023/05/07 02:04:24;;;;;;;12.52;2.53;;;;;;;13.38;80.30;100128.59;10548163;28;20052;-70
2023/05/07 02:09:25;;;;;;;8.45;2.85;;;;;;;13.40;80.65;100129.22;10522357;28;20040;-70
2023/05/07 02:14:26;;;;;;;13.93;2.53;;;;;;;13.39;80.33;100112.38;10519077;28;20048;-70
2023/05/07 02:19:27;;;;;;;38.13;4.10;;;;;;;13.46;80.30;100107.09;10531202;28;20040;-70
2023/05/07 02:24:27;;;;;;;20.23;2.95;;;;;;;13.39;79.47;100071.53;10531146;28;20052;-70
2023/05/07 02:29:28;;;;;;;45.97;9.07;;;;;;;13.53;79.75;100083.97;10530122;28;20075;-69
2023/05/07 02:34:29;;;;;;;42.28;14.13;;;;;;;13.57;80.00;100089.75;10531183;28;20032;-70
2023/05/07 02:39:30;;;;;;;98.43;47.72;;;;;;;13.53;80.38;100088.50;10529825;28;20101;-70
2023/05/07 02:44:31;;;;;;;82.30;31.05;;;;;;;13.47;80.05;100063.41;10523320;28;20051;-70
2023/05/07 02:49:31;;;;;;;31.80;14.45;;;;;;;13.55;79.79;100057.94;10495660;28;20040;-69
2023/05/07 02:54:32;;;;;;;23.85;6.40;;;;;;;13.67;79.71;100056.38;10487254;28;20040;-69
2023/05/07 02:59:33;;;;;;;44.28;11.95;;;;;;;13.62;79.39;100069.47;10469709;28;20181;-69
2023/05/07 03:04:34;;;;;;;15.48;4.15;;;;;;;13.67;79.67;100071.53;10471061;28;20543;-69
2023/05/07 03:09:35;;;;;;;11.40;3.05;;;;;;;13.67;79.65;100056.38;10487291;28;20040;-69
2023/05/07 03:14:35;;;;;;;11.52;3.00;;;;;;;13.84;79.69;100064.06;10501473;28;20086;-70
2023/05/07 03:19:36;;;;;;;29.98;8.98;;;;;;;13.57;79.22;100007.00;10461472;28;20041;-69
2023/05/07 03:24:37;;;;;;;18.60;7.25;;;;;;;13.87;79.35;100031.63;10458617;28;20047;-69
2023/05/07 03:29:38;;;;;;;22.33;8.20;;;;;;;13.54;79.48;99983.38;10458616;28;20076;-69
2023/05/07 03:34:38;;;;;;;22.42;11.90;;;;;;;13.97;79.26;100031.25;10458989;28;20492;-69
2023/05/07 03:39:39;;;;;;;33.05;17.92;;;;;;;14.19;78.60;100061.38;10458912;28;20044;-69
2023/05/07 03:44:40;;;;;;;33.42;16.30;;;;;;;14.29;78.16;100043.94;10457867;28;20075;-69
2023/05/07 03:49:41;;;;;;;23.23;15.82;;;;;;;14.28;78.04;100031.63;10459013;28;20045;-69
2023/05/07 03:54:42;;;;;;;20.55;11.90;;;;;;;14.14;77.61;99979.16;10457760;28;20067;-70
2023/05/07 03:59:42;;;;;;;13.57;3.55;;;;;;;14.78;76.63;100039.41;10458515;28;20130;-70
2023/05/07 04:04:43;;;;;;;11.90;2.22;;;;;;;15.90;74.52;100067.22;10479163;28;20075;-70
2023/05/07 04:09:44;;;;;;;16.23;2.10;;;;;;;15.78;73.47;100037.56;10488770;28;20529;-70
2023/05/07 04:14:45;;;;;;;10.18;2.40;;;;;;;16.43;72.14;100097.34;10498161;28;20047;-71
2023/05/07 04:19:46;;;;;;;5.07;2.05;;;;;;;17.21;69.83;100101.69;10497148;28;20423;-71
2023/05/07 04:24:47;;;;;;;13.50;2.20;;;;;;;18.22;67.54;100106.00;10498246;28;20044;-72
2023/05/07 04:29:48;;;;;;;9.35;2.13;;;;;;;19.12;65.61;100155.59;10489120;28;20504;-71
2023/05/07 04:34:48;;;;;;;12.85;2.45;;;;;;;19.01;64.52;100177.91;10486783;28;20071;-71
2023/05/07 04:39:49;;;;;;;8.23;3.28;;;;;;;19.03;64.53;100191.97;10465932;28;20051;-73
2023/05/07 04:44:53;;;;;;;10.82;2.75;;;;;;;19.41;63.27;100188.94;10466180;28;20041;-70
2023/05/07 04:49:54;;;;;;;11.63;2.58;;;;;;;19.19;62.78;100179.75;10468860;28;20424;-70
2023/05/07 04:54:55;;;;;;;13.32;3.92;;;;;;;19.10;63.23;100149.63;10493440;28;20056;-70
2023/05/07 04:59:57;;;;;;;16.35;5.85;;;;;;;18.82;62.32;100147.53;10455865;28;20503;-70
2023/05/07 05:04:58;;;;;;;8.45;2.85;;;;;;;18.43;63.32;100179.19;10455110;28;20052;-69
2023/05/07 05:09:59;;;;;;;10.98;3.00;;;;;;;18.41;63.11;100217.06;10455297;28;20048;-70
2023/05/07 05:15:00;;;;;;;10.48;3.25;;;;;;;18.28;63.07;100216.34;10454544;28;20523;-69
2023/05/07 05:20:01;;;;;;;13.80;2.65;;;;;;;18.54;62.45;100220.66;10454230;28;20040;-69
2023/05/07 05:25:02;;;;;;;8.52;3.33;;;;;;;18.44;61.95;100226.56;10455369;28;20043;-69
2023/05/07 05:30:04;;;;;;;19.77;4.80;;;;;;;17.86;63.01;100230.38;10454624;28;20036;-69
2023/05/07 05:35:05;;;;;;;10.65;4.00;;;;;;;17.48;63.98;100260.78;10454603;28;20037;-69
2023/05/07 05:40:07;;;;;;;15.80;3.08;;;;;;;16.72;65.26;100269.53;10453973;28;20416;-72
2023/05/07 05:45:08;;;;;;;13.05;3.55;;;;;;;16.07;66.21;100231.03;10453804;28;20044;-69
2023/05/07 05:50:09;;;;;;;23.65;5.95;;;;;;;15.64;67.59;100255.47;10454039;28;20044;-72
2023/05/07 05:55:10;;;;;;;11.15;3.40;;;;;;;15.16;69.08;100223.44;10452645;28;20061;-73
2023/05/07 06:00:11;;;;;;;11.45;3.78;;;;;;;14.84;70.56;100226.63;10470411;28;20060;-72
2023/05/07 06:05:12;;;;;;;13.15;4.25;;;;;;;14.67;71.12;100208.44;10474364;28;20055;-72
2023/05/07 06:10:13;;;;;;;11.30;3.97;;;;;;;13.78;72.38;100105.72;10476307;28;20044;-72
2023/05/07 06:15:14;;;;;;;10.00;4.50;;;;;;;13.96;73.26;100137.25;10477078;28;20040;-71
2023/05/07 06:20:15;;;;;;;17.20;6.68;;;;;;;13.52;74.44;100039.63;10471861;28;20048;-71
2023/05/07 06:25:16;;;;;;;18.88;4.70;;;;;;;13.44;75.38;100061.94;10472358;28;20074;-71
2023/05/07 06:30:16;;;;;;;16.92;5.07;;;;;;;13.48;76.95;100089.88;10468356;28;20041;-69
2023/05/07 06:35:17;;;;;;;7.22;4.90;;;;;;;13.35;78.61;100104.97;10462866;28;20043;-68
2023/05/07 06:40:18;;;;;;;23.67;13.25;;;;;;;13.62;78.00;100095.34;10476164;28;20049;-70
2023/05/07 06:45:20;;;;;;;24.33;12.00;;;;;;;13.90;77.98;100073.94;10475765;28;20143;-72
2023/05/07 06:50:21;;;;;;;14.35;7.15;;;;;;;14.07;77.43;100083.31;10479383;28;20044;-70
2023/05/07 06:55:21;;;;;;;11.60;5.20;;;;;;;14.16;76.88;100095.47;10484901;28;20049;-70
2023/05/07 07:00:22;;;;;;;21.17;6.00;;;;;;;14.67;75.83;100117.53;10477455;28;20143;-70
2023/05/07 07:05:23;;;;;;;19.92;7.18;;;;;;;14.98;74.43;100139.22;10459612;28;20091;-70
2023/05/07 07:10:24;;;;;;;14.57;5.10;;;;;;;15.28;73.54;100160.28;10458405;28;20132;-72
2023/05/07 07:15:26;;;;;;;16.70;4.65;;;;;;;15.88;72.35;100201.34;10458882;28;20071;-71
2023/05/07 07:20:27;;;;;;;11.18;3.38;;;;;;;16.33;69.91;100130.97;10470802;28;20041;-73
2023/05/07 07:25:27;;;;;;;8.88;3.00;;;;;;;17.44;67.80;100211.22;10500555;28;20033;-70
2023/05/07 07:30:28;;;;;;;9.65;3.22;;;;;;;18.08;65.77;100225.44;10496569;28;20107;-71
2023/05/07 07:35:30;;;;;;;10.00;3.47;;;;;;;18.60;64.11;100209.81;10467603;28;20036;-70
2023/05/07 07:40:30;;;;;;;19.02;4.15;;;;;;;19.02;63.59;100218.06;10458519;28;20036;-71
2023/05/07 07:45:31;;;;;;;11.65;3.45;;;;;;;19.09;62.63;100224.19;10458076;28;20048;-71
2023/05/07 07:50:32;;;;;;;13.57;3.97;;;;;;;19.01;62.37;100196.75;10458650;28;20045;-72
2023/05/07 07:55:38;;;;;;;13.45;3.80;;;;;;;18.18;62.08;100146.97;10458716;28;20060;-71
2023/05/07 08:00:39;;;;;;;9.60;3.25;;;;;;;17.22;64.97;100127.50;10497732;28;20124;-70
2023/05/07 08:05:39;;;;;;;21.42;3.75;;;;;;;16.85;65.91;100118.44;10499681;28;20135;-70
2023/05/07 08:10:40;;;;;;;12.32;2.72;;;;;;;16.49;66.78;100140.44;10498895;28;20047;-71
2023/05/07 08:15:41;;;;;;;13.38;3.95;;;;;;;16.42;67.19;100176.16;10498395;28;20051;-70
2023/05/07 08:20:42;;;;;;;9.57;3.67;;;;;;;16.26;67.09;100181.94;10498557;28;20033;-69
2023/05/07 08:25:42;;;;;;;15.52;3.85;;;;;;;15.74;67.25;100088.03;10498309;28;20071;-70
2023/05/07 08:30:43;;;;;;;15.55;3.25;;;;;;;16.26;67.76;100170.41;10498211;28;20041;-69
2023/05/07 08:35:44;;;;;;;10.55;2.90;;;;;;;16.58;67.54;100158.75;10497208;28;20040;-69
2023/05/07 08:40:45;;;;;;;17.48;3.53;;;;;;;17.08;66.93;100081.16;10497131;28;20087;-69
2023/05/07 08:45:53;;;;;;;11.82;2.70;;;;;;;18.30;63.59;100122.84;10497908;28;20044;-70
2023/05/07 08:50:54;;;;;;;9.48;2.50;;;;;;;18.95;62.17;100170.75;10497504;28;20036;-70
2023/05/07 08:55:55;;;;;;;14.15;2.90;;;;;;;19.60;60.56;100168.16;10497057;28;20139;-69
2023/05/07 09:00:56;;;;;;;10.18;2.25;;;;;;;19.72;59.25;100125.09;10497143;28;20132;-70
2023/05/07 09:05:56;;;;;;;9.07;2.85;;;;;;;20.61;57.53;100147.31;10493019;28;20385;-70
2023/05/07 09:10:57;;;;;;;7.47;2.00;;;;;;;20.99;56.61;100118.84;10496557;28;20048;-70
2023/05/07 09:16:10;;;;;;;15.38;2.20;;;;;;;20.52;54.88;100087.50;10494402;28;20045;-69
2023/05/07 09:21:15;;;;;;;11.80;1.57;;;;;;;20.93;54.92;100163.84;10477034;28;20048;-70
2023/05/07 09:26:16;;;;;;;13.15;2.35;;;;;;;21.29;53.97;100136.69;10455077;28;20435;-70
2023/05/07 09:31:17;;;;;;;12.43;1.92;;;;;;;20.88;52.93;100068.41;10461074;28;20047;-70
2023/05/07 09:36:18;;;;;;;9.38;1.90;;;;;;;21.69;51.50;100147.41;10451887;28;20519;-71
2023/05/07 09:41:19;;;;;;;9.88;2.20;;;;;;;22.18;51.43;100147.59;10453529;28;20048;-70
2023/05/07 09:46:31;;;;;;;13.48;2.28;;;;;;;21.94;48.79;100133.44;10453781;28;20484;-70
2023/05/07 09:51:45;;;;;;;14.07;2.63;;;;;;;21.33;49.18;100037.84;10453317;28;20041;-70
2023/05/07 09:56:48;;;;;;;6.25;1.63;;;;;;;21.17;50.55;100093.53;10454177;28;20134;-69
2023/05/07 10:01:51;;;;;;;10.23;1.93;;;;;;;20.81;51.45;100070.47;10453610;28;20049;-71
2023/05/07 10:06:53;;;;;;;13.52;4.45;;;;;;;20.75;52.01;100080.34;10478258;28;20163;-70
2023/05/07 10:11:54;;;;;;;19.25;3.55;;;;;;;20.59;51.58;100059.53;10476769;28;20412;-72
2023/05/07 10:16:57;;;;;;;15.35;2.90;;;;;;;20.27;52.17;100076.13;10470587;28;20036;-70
2023/05/07 10:22:04;;;;;;;23.20;2.75;;;;;;;19.89;52.21;100057.78;10476949;28;20037;-70
2023/05/07 10:27:14;;;;;;;10.82;2.65;;;;;;;19.94;53.24;100095.66;10488784;28;20040;-71
2023/05/07 10:32:33;;;;;;;8.15;1.98;;;;;;;19.85;53.53;100065.53;10483577;28;20091;-70
2023/05/07 10:37:34;;;;;;;11.30;2.38;;;;;;;19.43;53.92;100022.53;10486646;28;20041;-72
2023/05/07 10:42:35;;;;;;;9.88;1.90;;;;;;;20.05;53.78;100075.94;10481657;28;20067;-71
2023/05/07 10:47:36;;;;;;;12.90;2.15;;;;;;;20.23;52.85;100056.09;10477908;28;20499;-71
2023/05/07 10:52:37;;;;;;;10.57;1.73;;;;;;;21.22;52.15;100080.09;10478157;28;20044;-71
2023/05/07 10:57:38;;;;;;;13.55;1.85;;;;;;;21.46;50.57;100044.84;10478813;28;20051;-70
2023/05/07 11:03:00;;;;;;;12.80;2.20;;;;;;;21.96;49.38;100077.22;10483071;28;20052;-71
2023/05/07 11:08:02;;;;;;;20.92;2.40;;;;;;;21.61;50.21;100069.41;10478116;28;20048;-71
2023/05/07 11:13:03;;;;;;;18.15;2.53;;;;;;;21.27;51.05;100014.53;10477067;28;20044;-70
2023/05/07 11:18:04;;;;;;;7.18;1.67;;;;;;;21.31;51.78;99986.78;10481473;28;20074;-71
2023/05/07 11:23:05;;;;;;;12.50;1.77;;;;;;;21.07;50.96;99882.69;10484989;28;20063;-71
2023/05/07 11:28:10;;;;;;;19.58;2.17;;;;;;;21.77;50.36;99965.81;10500175;28;20044;-71
2023/05/07 11:33:11;;;;;;;15.65;4.05;;;;;;;21.72;51.03;99973.03;10499271;28;20032;-70
2023/05/07 11:38:13;;;;;;;10.30;2.08;;;;;;;21.63;50.83;99959.16;10499157;28;20036;-71
2023/05/07 11:43:14;;;;;;;16.73;4.65;;;;;;;21.68;51.11;99953.81;10492427;28;20045;-71
2023/05/07 11:48:15;;;;;;;14.77;2.53;;;;;;;21.50;50.69;99837.91;10463470;28;20037;-70
2023/05/07 11:53:17;;;;;;;13.90;3.00;;;;;;;21.85;50.16;99835.59;10457769;28;20048;-71
2023/05/07 11:58:21;;;;;;;12.80;2.55;;;;;;;21.92;50.61;99911.09;10476841;28;20083;-70
2023/05/07 12:03:22;;;;;;;21.88;3.22;;;;;;;22.51;50.18;99907.66;10455580;28;20163;-70
2023/05/07 12:08:23;;;;;;;26.17;2.80;;;;;;;22.37;49.14;99871.28;10457709;28;20191;-71
2023/05/07 12:13:25;;;;;;;25.55;3.58;;;;;;;22.74;48.99;99915.44;10457430;28;20037;-69
2023/05/07 12:18:26;;;;;;;18.88;2.45;;;;;;;22.50;47.87;99887.09;10457657;28;20041;-71
2023/05/07 12:23:29;;;;;;;20.58;3.22;;;;;;;22.69;47.68;99892.94;10457915;28;20043;-70
2023/05/07 12:28:30;;;;;;;29.25;4.93;;;;;;;22.35;47.75;99801.19;10456396;28;20043;-69
2023/05/07 12:33:32;;;;;;;25.08;2.97;;;;;;;22.78;47.14;99883.25;10456433;28;20041;-69
2023/05/07 12:38:43;;;;;;;35.28;3.85;;;;;;;22.37;46.22;99860.44;10456897;28;20042;-69
2023/05/07 12:43:45;;;;;;;33.72;4.55;;;;;;;21.80;46.90;99822.00;10456748;28;20045;-69
2023/05/07 12:48:47;;;;;;;26.63;3.95;;;;;;;21.62;46.46;99781.81;10456604;28;20068;-70
2023/05/07 12:53:47;;;;;;;21.20;3.92;;;;;;;22.18;46.51;99917.63;10455296;28;20070;-69
2023/05/07 12:58:50;;;;;;;26.75;3.97;;;;;;;21.99;46.88;99930.66;10455102;28;20065;-69
2023/05/07 13:03:56;;;;;;;27.20;4.88;;;;;;;21.99;47.02;99932.56;10455438;28;20052;-70
2023/05/07 13:08:56;;;;;;;25.25;4.07;;;;;;;21.89;47.27;99930.53;10455505;28;20048;-69
2023/05/07 13:14:04;;;;;;;21.45;3.75;;;;;;;21.86;46.82;99929.16;10478039;28;20037;-71
2023/05/07 13:19:06;;;;;;;35.35;5.35;;;;;;;21.94;47.00;99905.44;10496536;28;20488;-71
2023/05/07 13:24:07;;;;;;;21.67;4.45;;;;;;;21.92;47.30;99932.72;10496310;28;20043;-70
2023/05/07 13:29:08;;;;;;;42.42;5.32;;;;;;;21.98;47.05;99920.09;10496826;28;20079;-69
2023/05/07 13:34:09;;;;;;;35.13;5.13;;;;;;;21.07;46.97;99791.69;10470796;28;20126;-69
2023/05/07 13:39:10;;;;;;;31.65;4.40;;;;;;;21.78;46.99;99943.13;10454265;28;20454;-70
2023/05/07 13:44:11;;;;;;;44.30;5.50;;;;;;;21.68;47.10;99937.56;10454306;28;20049;-70
2023/05/07 13:49:12;;;;;;;26.85;4.05;;;;;;;21.43;47.44;99947.00;10452869;28;20041;-70
2023/05/07 13:54:13;;;;;;;41.55;5.25;;;;;;;21.22;47.48;99936.94;10449746;28;20141;-72
2023/05/07 13:59:14;;;;;;;35.70;4.93;;;;;;;21.11;48.10;99940.53;10451882;28;20066;-71
2023/05/07 14:04:14;;;;;;;24.70;4.63;;;;;;;20.89;47.92;99903.50;10453303;28;20033;-69
2023/05/07 14:09:15;;;;;;;39.20;4.95;;;;;;;21.02;47.73;99945.53;10453261;28;20067;-71
2023/05/07 14:14:17;;;;;;;34.15;4.45;;;;;;;20.57;47.34;99894.34;10471864;28;20040;-73
2023/05/07 14:19:18;;;;;;;23.65;3.50;;;;;;;20.78;47.51;99934.09;10470982;28;20053;-70
2023/05/07 14:24:19;;;;;;;21.73;4.25;;;;;;;20.09;47.45;99863.28;10475469;28;20045;-71
2023/05/07 14:29:19;;;;;;;26.63;4.13;;;;;;;20.19;47.75;99887.72;10453271;28;20041;-70
2023/05/07 14:34:20;;;;;;;27.30;4.40;;;;;;;20.28;47.91;99930.25;10479870;28;20041;-73
2023/05/07 14:39:21;;;;;;;25.80;3.92;;;;;;;19.76;48.41;99883.69;10494698;28;20416;-68
2023/05/07 14:44:22;;;;;;;25.63;3.65;;;;;;;19.65;48.64;99893.44;10494735;28;20037;-74
2023/05/07 14:49:23;;;;;;;15.55;3.45;;;;;;;20.05;49.20;99976.19;10488384;28;20033;-70
2023/05/07 14:54:24;;;;;;;18.77;2.85;;;;;;;19.89;49.30;99937.31;10477809;28;20197;-70
2023/05/07 14:59:25;;;;;;;26.58;3.08;;;;;;;19.97;49.87;99977.38;10468475;28;20605;-71
2023/05/07 15:04:26;;;;;;;18.00;3.67;;;;;;;19.84;49.67;99978.47;10483522;28;20743;-73
2023/05/07 15:09:26;;;;;;;19.38;3.28;;;;;;;19.12;49.76;99872.91;10475591;28;20045;-68
2023/05/07 15:14:27;;;;;;;24.75;3.97;;;;;;;19.64;49.83;99980.69;10501039;28;20395;-70
2023/05/07 15:19:29;;;;;;;21.52;2.67;;;;;;;19.68;49.55;99992.66;10500564;28;20049;-71
2023/05/07 15:24:31;;;;;;;15.77;3.53;;;;;;;19.48;50.05;99968.78;10484256;28;20048;-71
2023/05/07 15:29:32;;;;;;;25.83;3.55;;;;;;;19.37;50.49;99956.94;10493268;28;20036;-71
2023/05/07 15:34:33;;;;;;;22.33;3.85;;;;;;;19.19;50.97;99918.56;10494023;28;20044;-72
2023/05/07 15:39:33;;;;;;;30.73;4.13;;;;;;;19.07;51.71;99913.16;10494393;28;20036;-70
2023/05/07 15:44:35;;;;;;;17.90;2.83;;;;;;;18.99;51.93;99908.13;10494340;28;20514;-70
2023/05/07 15:49:36;;;;;;;15.93;2.95;;;;;;;18.90;52.69;99904.97;10492431;28;20043;-70
2023/05/07 15:54:40;;;;;;;19.42;3.20;;;;;;;18.65;53.32;99883.63;10479975;28;20045;-70
2023/05/07 15:59:40;;;;;;;19.17;2.95;;;;;;;18.44;54.01;99855.41;10472762;28;20048;-71
2023/05/07 16:04:41;;;;;;;24.70;3.30;;;;;;;18.37;54.65;99865.47;10475180;28;20045;-69
2023/05/07 16:09:42;;;;;;;21.70;2.92;;;;;;;18.21;55.14;99845.41;10472751;28;20040;-69
2023/05/07 16:14:43;;;;;;;15.50;3.35;;;;;;;17.67;55.63;99770.09;10488816;28;20044;-69
2023/05/07 16:19:43;;;;;;;22.15;4.25;;;;;;;18.06;56.27;99835.09;10467523;28;20056;-70
2023/05/07 16:24:45;;;;;;;42.40;5.18;;;;;;;17.89;57.06;99847.53;10466892;28;20108;-70
2023/05/07 16:29:45;;;;;;;59.20;6.95;;;;;;;17.76;57.43;99830.50;10469430;28;20080;-69
2023/05/07 16:34:46;;;;;;;70.97;7.45;;;;;;;17.68;58.34;99825.47;10468885;28;20094;-69
2023/05/07 16:39:47;;;;;;;40.17;5.03;;;;;;;17.47;59.15;99829.47;10476892;28;20055;-69
2023/05/07 16:44:47;;;;;;;25.38;4.63;;;;;;;17.05;59.58;99809.69;10467156;28;20649;-69
2023/05/07 16:49:49;;;;;;;25.17;3.30;;;;;;;17.51;59.83;99911.22;10473209;28;20562;-69
2023/05/07 16:54:50;;;;;;;13.98;3.42;;;;;;;17.45;60.30;99912.09;10471716;28;20053;-69
2023/05/07 16:59:51;;;;;;;17.13;2.20;;;;;;;17.32;61.04;99929.19;10463906;28;20559;-68
2023/05/07 17:04:52;;;;;;;10.82;2.55;;;;;;;17.14;61.06;99906.84;10476442;28;20049;-69
2023/05/07 17:09:53;;;;;;;16.90;2.55;;;;;;;17.18;61.32;99916.94;10470687;28;20119;-69
2023/05/07 17:14:54;;;;;;;14.00;2.72;;;;;;;17.11;61.59;99949.22;10491461;28;20045;-68
2023/05/07 17:19:55;;;;;;;19.33;2.53;;;;;;;17.06;61.54;99954.41;10477080;28;20047;-69
2023/05/07 17:24:57;;;;;;;16.80;2.28;;;;;;;16.83;61.86;99941.59;10483726;28;20036;-69
2023/05/07 17:29:58;;;;;;;23.92;2.92;;;;;;;16.88;62.27;99983.88;10474718;28;20060;-69
2023/05/07 17:34:59;;;;;;;14.55;2.15;;;;;;;16.81;62.29;100013.44;10474660;28;20048;-70
2023/05/07 17:40:00;;;;;;;17.08;2.25;;;;;;;16.78;62.59;100040.69;10462435;28;20041;-71
2023/05/07 17:45:01;;;;;;;15.13;2.22;;;;;;;16.60;62.51;100019.94;10478726;28;20165;-69
2023/05/07 17:50:04;;;;;;;22.10;2.00;;;;;;;16.64;62.67;100029.19;10454593;28;20037;-69
2023/05/07 17:55:06;;;;;;;10.50;2.17;;;;;;;16.56;63.10;100048.19;10454612;28;20393;-68
2023/05/07 18:00:08;;;;;;;13.27;2.40;;;;;;;16.59;63.18;100052.31;10465799;28;20171;-68
2023/05/07 18:05:09;;;;;;;7.93;2.30;;;;;;;16.59;63.30;100061.19;10461789;28;20511;-70
2023/05/07 18:10:10;;;;;;;11.73;2.05;;;;;;;16.56;63.25;100069.66;10475596;28;20051;-71
2023/05/07 18:15:11;;;;;;;16.27;1.95;;;;;;;16.13;63.17;100003.25;10483825;28;20135;-68
2023/05/07 18:20:12;;;;;;;20.65;2.45;;;;;;;16.49;63.39;100073.41;10472638;28;20037;-68
2023/05/07 18:25:13;;;;;;;10.07;2.22;;;;;;;16.47;63.62;100067.44;10461880;28;20449;-68
2023/05/07 18:30:14;;;;;;;6.88;1.63;;;;;;;16.40;63.70;100065.59;10484222;28;20045;-68
2023/05/07 18:35:15;;;;;;;12.40;1.90;;;;;;;15.83;64.04;99978.03;10494309;28;20044;-68
2023/05/07 18:40:16;;;;;;;11.70;1.90;;;;;;;16.00;64.58;100026.56;10479988;28;20090;-68
2023/05/07 18:45:18;;;;;;;13.23;2.78;;;;;;;16.10;64.99;100059.13;10488610;28;20082;-68
2023/05/07 18:50:19;;;;;;;18.77;2.65;;;;;;;15.85;65.75;100026.81;10496059;28;20087;-68
2023/05/07 18:55:20;;;;;;;11.63;2.45;;;;;;;15.81;66.32;100045.19;10476210;28;20099;-68
2023/05/07 19:00:22;;;;;;;12.68;2.58;;;;;;;15.57;66.92;100019.03;10460561;28;20041;-68
2023/05/07 19:05:23;;;;;;;14.75;3.38;;;;;;;15.39;67.96;100020.50;10460185;28;20570;-69
2023/05/07 19:10:24;;;;;;;14.25;2.95;;;;;;;15.29;68.60;100025.44;10459886;28;20489;-68
2023/05/07 19:15:25;;;;;;;13.98;2.70;;;;;;;15.31;69.03;100050.13;10460368;28;20037;-68
2023/05/07 19:20:27;;;;;;;19.20;3.08;;;;;;;15.26;69.47;100064.16;10459889;28;20132;-68
2023/05/07 19:25:27;;;;;;;14.63;2.40;;;;;;;15.20;70.02;100075.69;10459050;28;20037;-68
2023/05/07 19:30:28;;;;;;;10.18;1.52;;;;;;;14.53;70.06;99973.13;10465418;28;20045;-68
2023/05/07 19:35:30;;;;;;;8.80;2.35;;;;;;;14.85;70.46;100021.50;10463334;28;20041;-68
2023/05/07 19:40:31;;;;;;;18.27;2.92;;;;;;;14.51;70.67;99974.34;10490337;28;20036;-68
2023/05/07 19:45:32;;;;;;;14.23;2.63;;;;;;;14.96;71.16;100045.00;10492717;28;20032;-68
2023/05/07 19:50:33;;;;;;;13.98;3.10;;;;;;;14.95;71.06;100016.56;10492511;28;20098;-67
2023/05/07 19:55:34;;;;;;;15.75;2.25;;;;;;;15.11;70.85;100046.66;10462088;28;20451;-68
2023/05/07 20:00:35;;;;;;;12.75;2.10;;;;;;;15.15;71.18;100063.94;10471311;28;20051;-68
2023/05/07 20:05:36;;;;;;;7.25;1.98;;;;;;;15.14;71.23;100062.31;10499374;28;20055;-68
2023/05/07 20:10:37;;;;;;;15.77;2.17;;;;;;;14.94;71.27;100027.50;10499346;28;20515;-68
2023/05/07 20:15:38;;;;;;;18.65;2.40;;;;;;;15.18;71.60;100055.50;10498606;28;20484;-68
2023/05/07 20:20:39;;;;;;;14.02;2.13;;;;;;;15.15;71.63;100050.56;10473775;28;20127;-68
2023/05/07 20:25:42;;;;;;;11.65;1.90;;;;;;;15.06;72.03;100049.94;10456655;28;20127;-68
2023/05/07 20:30:43;;;;;;;9.38;2.33;;;;;;;14.91;72.77;100031.41;10457068;28;20036;-70
2023/05/07 20:35:44;;;;;;;15.00;2.08;;;;;;;14.80;73.25;100011.41;10457179;28;20041;-68
2023/05/07 20:40:44;;;;;;;15.30;2.00;;;;;;;14.71;73.74;100001.94;10456501;28;20116;-68
2023/05/07 20:45:45;;;;;;;12.25;2.88;;;;;;;14.64;74.31;99984.25;10456335;28;20136;-67
2023/05/07 20:50:46;;;;;;;13.00;2.03;;;;;;;14.47;74.98;99968.56;10455494;28;20029;-68
2023/05/07 20:55:47;;;;;;;11.27;2.33;;;;;;;14.11;75.61;99908.25;10456071;28;20194;-68
2023/05/07 21:00:47;;;;;;;11.00;2.03;;;;;;;14.49;75.65;99965.69;10467868;28;20048;-68
2023/05/07 21:05:52;;;;;;;8.65;2.03;;;;;;;14.55;76.97;99984.44;10458307;28;20041;-68
2023/05/07 21:10:54;;;;;;;12.13;2.35;;;;;;;14.44;76.38;99984.19;10454965;28;20055;-68
2023/05/07 21:15:55;;;;;;;9.75;2.05;;;;;;;14.44;76.45;99968.97;10455442;28;20425;-68
2023/05/07 21:20:56;;;;;;;9.55;1.98;;;;;;;14.41;76.56;99965.88;10454406;28;20132;-68
2023/05/07 21:25:57;;;;;;;14.73;2.50;;;;;;;14.49;76.38;99961.16;10455536;28;20047;-67
2023/05/07 21:30:57;;;;;;;13.48;2.05;;;;;;;14.60;76.22;99970.47;10454938;28;20403;-67
2023/05/07 21:35:58;;;;;;;11.07;2.30;;;;;;;14.66;76.16;99972.34;10453496;28;20052;-67
2023/05/07 21:40:59;;;;;;;10.50;2.17;;;;;;;14.66;76.48;99966.16;10454046;28;20059;-68
2023/05/07 21:46:02;;;;;;;5.20;2.10;;;;;;;14.45;76.46;99919.00;10454273;28;20090;-67
2023/05/07 21:51:05;;;;;;;13.75;1.95;;;;;;;14.50;77.56;99941.41;10452764;28;20634;-67
2023/05/07 21:56:06;;;;;;;5.32;1.92;;;;;;;14.56;77.40;99948.66;10453626;28;20057;-68
2023/05/07 22:01:11;;;;;;;8.55;1.85;;;;;;;14.54;77.84;99948.06;10455392;28;20179;-68
2023/05/07 22:06:11;;;;;;;11.82;2.13;;;;;;;14.56;78.58;99955.84;10460843;28;20090;-69
2023/05/07 22:11:13;;;;;;;15.38;2.15;;;;;;;14.55;78.94;99952.38;10462410;28;20044;-68
2023/05/07 22:16:13;;;;;;;12.07;2.42;;;;;;;13.39;78.81;99760.19;10462163;28;20408;-68
2023/05/07 22:21:14;;;;;;;16.00;2.40;;;;;;;14.57;78.64;99915.56;10462134;28;20043;-68
2023/05/07 22:26:15;;;;;;;9.45;1.83;;;;;;;14.67;78.79;99919.69;10461222;28;20033;-69
2023/05/07 22:31:16;;;;;;;8.00;2.30;;;;;;;14.26;79.13;99845.81;10461937;28;20037;-68
2023/05/07 22:36:16;;;;;;;12.23;2.53;;;;;;;14.55;79.83;99901.59;10462751;28;20072;-68
2023/05/07 22:41:17;;;;;;;11.02;2.58;;;;;;;14.37;80.25;99879.94;10460920;28;20037;-68
2023/05/07 22:46:18;;;;;;;14.68;2.83;;;;;;;14.41;80.18;99894.53;10460954;28;20136;-68
2023/05/07 22:51:19;;;;;;;16.00;2.60;;;;;;;14.38;80.65;99919.81;10461195;28;20033;-68
2023/05/07 22:56:19;;;;;;;14.43;2.60;;;;;;;14.38;81.36;99964.44;10460949;28;20151;-68
2023/05/07 23:01:20;;;;;;;6.93;2.08;;;;;;;14.49;81.58;100005.78;10460516;28;20041;-68
2023/05/07 23:06:21;;;;;;;11.20;2.40;;;;;;;14.54;81.79;100017.56;10460542;28;20045;-68
2023/05/07 23:11:22;;;;;;;9.88;2.35;;;;;;;14.46;82.19;99990.97;10459471;28;20041;-68
2023/05/07 23:16:22;;;;;;;11.88;2.10;;;;;;;14.58;82.80;100005.41;10459555;28;20500;-68